sensor_id;sensor_type;location;lat;lon;timestamp;temperature;humidity
995;DHT22;486;48.726;8.964;2022-07-29T00:00:33;19.60;99.90
995;DHT22;486;48.726;8.964;2022-07-29T00:03:03;19.60;99.90
995;DHT22;486;48.726;8.964;2022-07-29T00:05:32;19.50;99.90
995;DHT22;486;48.726;8.964;2022-07-29T00:08:01;19.40;99.90
995;DHT22;486;48.726;8.964;2022-07-29T00:10:30;19.50;99.90
995;DHT22;486;48.726;8.964;2022-07-29T00:12:59;19.40;99.90
995;DHT22;486;48.726;8.964;2022-07-29T00:15:28;19.40;99.90
995;DHT22;486;48.726;8.964;2022-07-29T00:18:00;19.30;99.90
995;DHT22;486;48.726;8.964;2022-07-29T00:20:29;19.30;99.90
995;DHT22;486;48.726;8.964;2022-07-29T00:22:58;19.20;99.90
995;DHT22;486;48.726;8.964;2022-07-29T00:25:27;19.20;99.90
995;DHT22;486;48.726;8.964;2022-07-29T00:27:56;19.20;99.90
995;DHT22;486;48.726;8.964;2022-07-29T00:30:25;19.10;99.90
995;DHT22;486;48.726;8.964;2022-07-29T00:32:54;19.10;99.90
995;DHT22;486;48.726;8.964;2022-07-29T00:35:26;19.10;99.90
995;DHT22;486;48.726;8.964;2022-07-29T00:38:07;19.00;99.90
995;DHT22;486;48.726;8.964;2022-07-29T00:40:36;19.10;99.90
995;DHT22;486;48.726;8.964;2022-07-29T00:43:05;19.00;99.90
995;DHT22;486;48.726;8.964;2022-07-29T00:45:35;19.00;99.90
995;DHT22;486;48.726;8.964;2022-07-29T00:48:05;19.00;99.90
995;DHT22;486;48.726;8.964;2022-07-29T00:50:37;18.90;99.90
995;DHT22;486;48.726;8.964;2022-07-29T00:53:07;18.90;99.90
995;DHT22;486;48.726;8.964;2022-07-29T00:55:37;18.90;99.90
995;DHT22;486;48.726;8.964;2022-07-29T00:58:06;18.90;99.90
995;DHT22;486;48.726;8.964;2022-07-29T01:00:35;18.80;99.90
995;DHT22;486;48.726;8.964;2022-07-29T01:03:06;18.80;99.90
995;DHT22;486;48.726;8.964;2022-07-29T01:05:39;18.80;99.90
995;DHT22;486;48.726;8.964;2022-07-29T01:08:09;18.70;99.90
995;DHT22;486;48.726;8.964;2022-07-29T01:10:41;18.70;99.90
995;DHT22;486;48.726;8.964;2022-07-29T01:13:10;18.70;99.90
995;DHT22;486;48.726;8.964;2022-07-29T01:15:44;18.70;99.90
995;DHT22;486;48.726;8.964;2022-07-29T01:18:20;18.60;99.90
995;DHT22;486;48.726;8.964;2022-07-29T01:21:19;18.60;99.90
995;DHT22;486;48.726;8.964;2022-07-29T01:27:18;18.60;99.90
995;DHT22;486;48.726;8.964;2022-07-29T01:30:05;18.60;99.90
995;DHT22;486;48.726;8.964;2022-07-29T01:32:37;18.60;99.90
995;DHT22;486;48.726;8.964;2022-07-29T01:35:12;18.60;99.90
995;DHT22;486;48.726;8.964;2022-07-29T01:37:50;18.50;99.90
995;DHT22;486;48.726;8.964;2022-07-29T01:40:27;18.50;99.90
995;DHT22;486;48.726;8.964;2022-07-29T01:43:03;18.50;99.90
995;DHT22;486;48.726;8.964;2022-07-29T01:45:44;18.50;99.90
995;DHT22;486;48.726;8.964;2022-07-29T01:48:18;18.50;99.90
995;DHT22;486;48.726;8.964;2022-07-29T01:50:54;18.50;99.90
995;DHT22;486;48.726;8.964;2022-07-29T01:53:31;18.50;99.90
995;DHT22;486;48.726;8.964;2022-07-29T01:56:03;18.50;99.90
995;DHT22;486;48.726;8.964;2022-07-29T01:58:35;18.60;99.90
995;DHT22;486;48.726;8.964;2022-07-29T02:01:08;18.50;99.90
995;DHT22;486;48.726;8.964;2022-07-29T02:03:39;18.50;99.90
995;DHT22;486;48.726;8.964;2022-07-29T02:06:13;18.50;99.90
995;DHT22;486;48.726;8.964;2022-07-29T02:08:47;18.50;99.90
995;DHT22;486;48.726;8.964;2022-07-29T02:11:17;18.50;99.90
995;DHT22;486;48.726;8.964;2022-07-29T02:13:47;18.50;99.90
995;DHT22;486;48.726;8.964;2022-07-29T02:16:21;18.50;99.90
995;DHT22;486;48.726;8.964;2022-07-29T02:18:52;18.50;99.90
995;DHT22;486;48.726;8.964;2022-07-29T02:21:24;18.40;99.90
995;DHT22;486;48.726;8.964;2022-07-29T02:23:54;18.40;99.90
995;DHT22;486;48.726;8.964;2022-07-29T02:26:26;18.40;99.90
995;DHT22;486;48.726;8.964;2022-07-29T02:28:56;18.40;99.90
995;DHT22;486;48.726;8.964;2022-07-29T02:31:31;18.40;99.90
995;DHT22;486;48.726;8.964;2022-07-29T02:34:02;18.40;99.90
995;DHT22;486;48.726;8.964;2022-07-29T02:36:32;18.40;99.90
995;DHT22;486;48.726;8.964;2022-07-29T02:39:03;18.40;99.90
995;DHT22;486;48.726;8.964;2022-07-29T02:41:37;18.40;99.90
995;DHT22;486;48.726;8.964;2022-07-29T02:44:11;18.40;99.90
995;DHT22;486;48.726;8.964;2022-07-29T02:46:48;18.30;99.90
995;DHT22;486;48.726;8.964;2022-07-29T02:49:38;18.30;99.90
995;DHT22;486;48.726;8.964;2022-07-29T02:52:16;18.30;99.90
995;DHT22;486;48.726;8.964;2022-07-29T02:54:56;18.30;99.90
995;DHT22;486;48.726;8.964;2022-07-29T02:57:33;18.30;99.90
995;DHT22;486;48.726;8.964;2022-07-29T03:00:17;18.30;99.90
995;DHT22;486;48.726;8.964;2022-07-29T03:02:52;18.30;99.90
995;DHT22;486;48.726;8.964;2022-07-29T03:05:22;18.20;99.90
995;DHT22;486;48.726;8.964;2022-07-29T03:07:55;18.20;99.90
995;DHT22;486;48.726;8.964;2022-07-29T03:10:26;18.20;99.90
995;DHT22;486;48.726;8.964;2022-07-29T03:12:55;18.20;99.90
995;DHT22;486;48.726;8.964;2022-07-29T03:15:26;18.20;99.90
995;DHT22;486;48.726;8.964;2022-07-29T03:17:59;18.10;99.90
995;DHT22;486;48.726;8.964;2022-07-29T03:20:28;18.10;99.90
995;DHT22;486;48.726;8.964;2022-07-29T03:22:57;18.00;99.90
995;DHT22;486;48.726;8.964;2022-07-29T03:25:26;18.00;99.90
995;DHT22;486;48.726;8.964;2022-07-29T03:27:55;18.00;99.90
995;DHT22;486;48.726;8.964;2022-07-29T03:30:25;18.00;99.90
995;DHT22;486;48.726;8.964;2022-07-29T03:32:58;18.00;99.90
995;DHT22;486;48.726;8.964;2022-07-29T03:35:28;18.00;99.90
995;DHT22;486;48.726;8.964;2022-07-29T03:37:57;18.00;99.90
995;DHT22;486;48.726;8.964;2022-07-29T03:40:31;18.00;99.90
995;DHT22;486;48.726;8.964;2022-07-29T03:43:05;18.00;99.90
995;DHT22;486;48.726;8.964;2022-07-29T03:45:36;18.00;99.90
995;DHT22;486;48.726;8.964;2022-07-29T03:48:11;18.00;99.90
995;DHT22;486;48.726;8.964;2022-07-29T03:50:42;18.10;99.90
995;DHT22;486;48.726;8.964;2022-07-29T03:53:12;18.10;99.90
995;DHT22;486;48.726;8.964;2022-07-29T03:55:44;18.10;99.90
995;DHT22;486;48.726;8.964;2022-07-29T03:58:14;18.10;99.90
995;DHT22;486;48.726;8.964;2022-07-29T04:00:45;18.10;99.90
995;DHT22;486;48.726;8.964;2022-07-29T04:03:17;18.10;99.90
995;DHT22;486;48.726;8.964;2022-07-29T04:05:58;18.20;99.90
995;DHT22;486;48.726;8.964;2022-07-29T04:08:31;18.20;99.90
995;DHT22;486;48.726;8.964;2022-07-29T04:11:01;18.20;99.90
995;DHT22;486;48.726;8.964;2022-07-29T04:13:31;18.20;99.90
995;DHT22;486;48.726;8.964;2022-07-29T04:16:01;18.20;99.90
995;DHT22;486;48.726;8.964;2022-07-29T04:18:32;18.20;99.90
995;DHT22;486;48.726;8.964;2022-07-29T04:21:01;18.20;99.90
995;DHT22;486;48.726;8.964;2022-07-29T04:23:30;18.20;99.90
995;DHT22;486;48.726;8.964;2022-07-29T04:26:00;18.20;99.90
995;DHT22;486;48.726;8.964;2022-07-29T04:28:29;18.20;99.90
995;DHT22;486;48.726;8.964;2022-07-29T04:30:59;18.20;99.90
995;DHT22;486;48.726;8.964;2022-07-29T04:33:28;18.20;99.90
995;DHT22;486;48.726;8.964;2022-07-29T04:35:59;18.20;99.90
995;DHT22;486;48.726;8.964;2022-07-29T04:38:29;18.20;99.90
995;DHT22;486;48.726;8.964;2022-07-29T04:40:58;18.20;99.90
995;DHT22;486;48.726;8.964;2022-07-29T04:43:27;18.30;99.90
995;DHT22;486;48.726;8.964;2022-07-29T04:45:56;18.30;99.90
995;DHT22;486;48.726;8.964;2022-07-29T04:48:25;18.30;99.90
995;DHT22;486;48.726;8.964;2022-07-29T04:50:54;18.30;99.90
995;DHT22;486;48.726;8.964;2022-07-29T04:53:26;18.40;99.90
995;DHT22;486;48.726;8.964;2022-07-29T04:55:55;18.40;99.90
995;DHT22;486;48.726;8.964;2022-07-29T04:58:24;18.50;99.90
995;DHT22;486;48.726;8.964;2022-07-29T05:00:53;18.60;99.90
995;DHT22;486;48.726;8.964;2022-07-29T05:03:23;18.60;99.90
995;DHT22;486;48.726;8.964;2022-07-29T05:05:52;18.70;99.90
995;DHT22;486;48.726;8.964;2022-07-29T05:08:21;18.70;99.90
995;DHT22;486;48.726;8.964;2022-07-29T05:10:52;18.80;99.90
995;DHT22;486;48.726;8.964;2022-07-29T05:13:21;18.90;99.90
995;DHT22;486;48.726;8.964;2022-07-29T05:15:51;19.00;99.90
995;DHT22;486;48.726;8.964;2022-07-29T05:18:20;19.10;99.90
995;DHT22;486;48.726;8.964;2022-07-29T05:20:49;19.10;99.90
995;DHT22;486;48.726;8.964;2022-07-29T05:23:18;19.20;99.90
995;DHT22;486;48.726;8.964;2022-07-29T05:25:47;19.20;99.90
995;DHT22;486;48.726;8.964;2022-07-29T05:28:18;19.30;99.90
995;DHT22;486;48.726;8.964;2022-07-29T05:30:47;19.40;99.90
995;DHT22;486;48.726;8.964;2022-07-29T05:33:16;19.40;99.90
995;DHT22;486;48.726;8.964;2022-07-29T05:35:46;19.40;99.90
995;DHT22;486;48.726;8.964;2022-07-29T05:38:15;19.50;99.90
995;DHT22;486;48.726;8.964;2022-07-29T05:40:44;19.60;99.90
995;DHT22;486;48.726;8.964;2022-07-29T05:43:13;19.70;99.90
995;DHT22;486;48.726;8.964;2022-07-29T05:45:44;19.80;99.90
995;DHT22;486;48.726;8.964;2022-07-29T05:48:13;19.70;99.90
995;DHT22;486;48.726;8.964;2022-07-29T05:50:42;19.80;99.90
995;DHT22;486;48.726;8.964;2022-07-29T05:53:13;19.90;99.90
995;DHT22;486;48.726;8.964;2022-07-29T05:55:43;20.10;99.90
995;DHT22;486;48.726;8.964;2022-07-29T05:58:12;20.20;99.90
995;DHT22;486;48.726;8.964;2022-07-29T06:00:41;20.30;99.90
995;DHT22;486;48.726;8.964;2022-07-29T06:03:12;20.40;99.90
995;DHT22;486;48.726;8.964;2022-07-29T06:05:42;20.60;99.90
995;DHT22;486;48.726;8.964;2022-07-29T06:08:11;20.80;99.90
995;DHT22;486;48.726;8.964;2022-07-29T06:10:40;21.00;99.90
995;DHT22;486;48.726;8.964;2022-07-29T06:15:38;21.70;99.90
995;DHT22;486;48.726;8.964;2022-07-29T06:18:10;21.70;99.90
995;DHT22;486;48.726;8.964;2022-07-29T06:20:40;21.90;99.90
995;DHT22;486;48.726;8.964;2022-07-29T06:23:09;22.00;99.90
995;DHT22;486;48.726;8.964;2022-07-29T06:25:39;22.00;99.90
995;DHT22;486;48.726;8.964;2022-07-29T06:28:09;21.80;99.90
995;DHT22;486;48.726;8.964;2022-07-29T06:30:38;21.80;99.90
995;DHT22;486;48.726;8.964;2022-07-29T06:33:16;22.10;99.90
995;DHT22;486;48.726;8.964;2022-07-29T06:35:46;22.10;99.90
995;DHT22;486;48.726;8.964;2022-07-29T06:38:15;22.20;99.90
995;DHT22;486;48.726;8.964;2022-07-29T06:40:45;22.30;99.90
995;DHT22;486;48.726;8.964;2022-07-29T06:43:27;22.40;99.90
995;DHT22;486;48.726;8.964;2022-07-29T06:46:00;22.60;99.90
995;DHT22;486;48.726;8.964;2022-07-29T06:48:32;22.70;99.90
995;DHT22;486;48.726;8.964;2022-07-29T06:51:02;22.70;99.90
995;DHT22;486;48.726;8.964;2022-07-29T06:53:32;22.70;99.90
995;DHT22;486;48.726;8.964;2022-07-29T06:56:03;22.90;99.90
995;DHT22;486;48.726;8.964;2022-07-29T06:58:34;23.20;99.90
995;DHT22;486;48.726;8.964;2022-07-29T07:01:05;23.40;99.90
995;DHT22;486;48.726;8.964;2022-07-29T07:03:37;23.50;99.90
995;DHT22;486;48.726;8.964;2022-07-29T07:06:07;23.70;99.90
995;DHT22;486;48.726;8.964;2022-07-29T07:08:36;23.60;99.90
995;DHT22;486;48.726;8.964;2022-07-29T07:11:06;23.70;99.90
995;DHT22;486;48.726;8.964;2022-07-29T07:13:35;23.80;99.90
995;DHT22;486;48.726;8.964;2022-07-29T07:16:04;24.00;99.90
995;DHT22;486;48.726;8.964;2022-07-29T07:18:33;24.00;99.90
995;DHT22;486;48.726;8.964;2022-07-29T07:21:05;24.00;99.90
995;DHT22;486;48.726;8.964;2022-07-29T07:23:34;24.10;99.90
995;DHT22;486;48.726;8.964;2022-07-29T07:26:03;24.40;99.90
995;DHT22;486;48.726;8.964;2022-07-29T07:28:32;24.70;99.90
995;DHT22;486;48.726;8.964;2022-07-29T07:31:01;25.00;99.90
995;DHT22;486;48.726;8.964;2022-07-29T07:33:30;25.30;99.90
995;DHT22;486;48.726;8.964;2022-07-29T07:35:59;25.50;99.90
995;DHT22;486;48.726;8.964;2022-07-29T07:38:31;25.60;99.90
995;DHT22;486;48.726;8.964;2022-07-29T07:41:01;25.80;99.90
995;DHT22;486;48.726;8.964;2022-07-29T07:43:30;25.90;99.90
995;DHT22;486;48.726;8.964;2022-07-29T07:45:59;25.80;99.90
995;DHT22;486;48.726;8.964;2022-07-29T07:48:28;25.70;99.90
995;DHT22;486;48.726;8.964;2022-07-29T07:50:57;25.60;99.90
995;DHT22;486;48.726;8.964;2022-07-29T07:53:26;25.60;99.90
995;DHT22;486;48.726;8.964;2022-07-29T07:55:58;25.50;99.90
995;DHT22;486;48.726;8.964;2022-07-29T07:58:28;25.70;99.90
995;DHT22;486;48.726;8.964;2022-07-29T08:00:57;25.90;99.90
995;DHT22;486;48.726;8.964;2022-07-29T08:03:26;25.90;99.90
995;DHT22;486;48.726;8.964;2022-07-29T08:05:55;26.00;99.90
995;DHT22;486;48.726;8.964;2022-07-29T08:08:24;26.00;99.90
995;DHT22;486;48.726;8.964;2022-07-29T08:10:53;26.30;99.90
995;DHT22;486;48.726;8.964;2022-07-29T08:13:26;26.20;99.40
995;DHT22;486;48.726;8.964;2022-07-29T08:15:56;26.20;97.60
995;DHT22;486;48.726;8.964;2022-07-29T08:18:28;26.20;96.20
995;DHT22;486;48.726;8.964;2022-07-29T08:20:58;26.00;95.40
995;DHT22;486;48.726;8.964;2022-07-29T08:23:27;25.90;96.50
995;DHT22;486;48.726;8.964;2022-07-29T08:26:03;26.00;95.00
995;DHT22;486;48.726;8.964;2022-07-29T08:28:39;26.00;93.30
995;DHT22;486;48.726;8.964;2022-07-29T08:31:12;25.80;93.60
995;DHT22;486;48.726;8.964;2022-07-29T08:33:42;25.60;93.90
995;DHT22;486;48.726;8.964;2022-07-29T08:36:11;25.50;94.00
995;DHT22;486;48.726;8.964;2022-07-29T08:38:40;25.60;93.10
995;DHT22;486;48.726;8.964;2022-07-29T08:41:09;25.60;93.30
995;DHT22;486;48.726;8.964;2022-07-29T08:43:42;25.60;93.20
995;DHT22;486;48.726;8.964;2022-07-29T08:46:11;25.70;92.40
995;DHT22;486;48.726;8.964;2022-07-29T08:48:41;25.70;92.40
995;DHT22;486;48.726;8.964;2022-07-29T08:51:13;25.90;92.10
995;DHT22;486;48.726;8.964;2022-07-29T08:53:44;26.10;90.90
995;DHT22;486;48.726;8.964;2022-07-29T08:56:14;25.90;91.30
995;DHT22;486;48.726;8.964;2022-07-29T08:58:48;25.90;91.20
995;DHT22;486;48.726;8.964;2022-07-29T09:01:22;26.20;90.60
995;DHT22;486;48.726;8.964;2022-07-29T09:03:55;26.30;89.50
995;DHT22;486;48.726;8.964;2022-07-29T09:06:25;26.10;89.80
995;DHT22;486;48.726;8.964;2022-07-29T09:08:59;26.20;90.20
995;DHT22;486;48.726;8.964;2022-07-29T09:11:31;26.10;89.60
995;DHT22;486;48.726;8.964;2022-07-29T09:14:03;26.20;89.40
995;DHT22;486;48.726;8.964;2022-07-29T09:16:49;26.40;90.10
995;DHT22;486;48.726;8.964;2022-07-29T09:19:25;26.60;89.10
995;DHT22;486;48.726;8.964;2022-07-29T09:21:56;26.60;86.80
995;DHT22;486;48.726;8.964;2022-07-29T09:24:24;26.50;87.10
995;DHT22;486;48.726;8.964;2022-07-29T09:26:54;26.50;87.50
995;DHT22;486;48.726;8.964;2022-07-29T09:29:26;26.70;85.30
995;DHT22;486;48.726;8.964;2022-07-29T09:31:55;26.90;85.20
995;DHT22;486;48.726;8.964;2022-07-29T09:34:25;27.00;85.40
995;DHT22;486;48.726;8.964;2022-07-29T09:36:57;27.30;85.90
995;DHT22;486;48.726;8.964;2022-07-29T09:39:30;27.60;82.90
995;DHT22;486;48.726;8.964;2022-07-29T09:42:03;27.80;83.20
995;DHT22;486;48.726;8.964;2022-07-29T09:44:48;27.70;81.30
995;DHT22;486;48.726;8.964;2022-07-29T09:47:18;27.50;81.60
995;DHT22;486;48.726;8.964;2022-07-29T09:49:53;27.50;82.20
995;DHT22;486;48.726;8.964;2022-07-29T09:52:25;27.40;82.30
995;DHT22;486;48.726;8.964;2022-07-29T09:55:04;27.30;82.40
995;DHT22;486;48.726;8.964;2022-07-29T09:57:34;27.20;84.20
995;DHT22;486;48.726;8.964;2022-07-29T10:00:08;27.10;87.50
995;DHT22;486;48.726;8.964;2022-07-29T10:02:40;26.70;90.80
995;DHT22;486;48.726;8.964;2022-07-29T10:05:18;26.30;94.50
995;DHT22;486;48.726;8.964;2022-07-29T10:07:50;24.90;95.70
995;DHT22;486;48.726;8.964;2022-07-29T10:10:21;23.50;99.90
995;DHT22;486;48.726;8.964;2022-07-29T10:12:55;22.70;99.90
995;DHT22;486;48.726;8.964;2022-07-29T10:15:29;22.20;99.90
995;DHT22;486;48.726;8.964;2022-07-29T10:17:59;21.90;99.90
995;DHT22;486;48.726;8.964;2022-07-29T10:20:28;21.50;99.90
995;DHT22;486;48.726;8.964;2022-07-29T10:25:27;20.40;99.90
995;DHT22;486;48.726;8.964;2022-07-29T10:27:56;19.70;99.90
995;DHT22;486;48.726;8.964;2022-07-29T10:30:28;19.20;99.90
995;DHT22;486;48.726;8.964;2022-07-29T10:33:12;18.90;99.90
995;DHT22;486;48.726;8.964;2022-07-29T10:36:05;18.70;99.90
995;DHT22;486;48.726;8.964;2022-07-29T10:38:47;18.80;99.90
995;DHT22;486;48.726;8.964;2022-07-29T10:41:36;18.70;99.90
995;DHT22;486;48.726;8.964;2022-07-29T10:44:12;18.70;99.90
995;DHT22;486;48.726;8.964;2022-07-29T10:46:47;18.80;99.90
995;DHT22;486;48.726;8.964;2022-07-29T10:49:17;18.80;99.90
995;DHT22;486;48.726;8.964;2022-07-29T10:51:54;18.80;99.90
995;DHT22;486;48.726;8.964;2022-07-29T10:54:48;18.90;99.90
995;DHT22;486;48.726;8.964;2022-07-29T10:57:26;18.70;99.90
995;DHT22;486;48.726;8.964;2022-07-29T11:00:25;18.80;99.90
995;DHT22;486;48.726;8.964;2022-07-29T11:02:58;18.90;99.90
995;DHT22;486;48.726;8.964;2022-07-29T11:05:27;19.20;99.90
995;DHT22;486;48.726;8.964;2022-07-29T11:08:22;19.40;99.90
995;DHT22;486;48.726;8.964;2022-07-29T11:14:07;19.70;99.90
995;DHT22;486;48.726;8.964;2022-07-29T11:16:58;19.60;99.90
995;DHT22;486;48.726;8.964;2022-07-29T11:19:31;19.50;99.90
995;DHT22;486;48.726;8.964;2022-07-29T11:22:02;19.50;99.90
995;DHT22;486;48.726;8.964;2022-07-29T11:24:31;19.60;99.90
995;DHT22;486;48.726;8.964;2022-07-29T11:27:15;19.70;99.90
995;DHT22;486;48.726;8.964;2022-07-29T11:29:54;19.90;99.90
995;DHT22;486;48.726;8.964;2022-07-29T11:32:36;20.20;99.90
995;DHT22;486;48.726;8.964;2022-07-29T11:35:16;20.60;99.90
995;DHT22;486;48.726;8.964;2022-07-29T11:41:19;21.40;99.90
995;DHT22;486;48.726;8.964;2022-07-29T11:43:52;21.80;99.90
995;DHT22;486;48.726;8.964;2022-07-29T11:46:44;21.70;99.90
995;DHT22;486;48.726;8.964;2022-07-29T11:49:19;21.60;99.90
995;DHT22;486;48.726;8.964;2022-07-29T11:51:56;21.70;99.90
995;DHT22;486;48.726;8.964;2022-07-29T11:54:31;21.90;99.90
995;DHT22;486;48.726;8.964;2022-07-29T11:57:02;22.10;99.90
995;DHT22;486;48.726;8.964;2022-07-29T11:59:31;22.10;99.90
995;DHT22;486;48.726;8.964;2022-07-29T12:02:08;22.10;99.90
995;DHT22;486;48.726;8.964;2022-07-29T12:04:48;22.10;99.90
995;DHT22;486;48.726;8.964;2022-07-29T12:07:26;22.10;99.90
995;DHT22;486;48.726;8.964;2022-07-29T12:09:56;22.10;99.90
995;DHT22;486;48.726;8.964;2022-07-29T12:12:25;22.00;99.90
995;DHT22;486;48.726;8.964;2022-07-29T12:14:54;21.90;99.90
995;DHT22;486;48.726;8.964;2022-07-29T12:17:29;21.80;99.90
995;DHT22;486;48.726;8.964;2022-07-29T12:20:01;21.70;99.90
995;DHT22;486;48.726;8.964;2022-07-29T12:22:36;21.70;99.90
995;DHT22;486;48.726;8.964;2022-07-29T12:25:09;21.80;99.90
995;DHT22;486;48.726;8.964;2022-07-29T12:27:41;21.80;99.90
995;DHT22;486;48.726;8.964;2022-07-29T12:30:13;21.80;99.90
995;DHT22;486;48.726;8.964;2022-07-29T12:32:45;21.80;99.90
995;DHT22;486;48.726;8.964;2022-07-29T12:35:17;21.70;99.90
995;DHT22;486;48.726;8.964;2022-07-29T12:37:49;21.80;99.90
995;DHT22;486;48.726;8.964;2022-07-29T12:40:21;21.70;99.90
995;DHT22;486;48.726;8.964;2022-07-29T12:43:06;21.70;99.90
995;DHT22;486;48.726;8.964;2022-07-29T12:45:40;21.70;99.90
995;DHT22;486;48.726;8.964;2022-07-29T12:48:10;21.50;99.90
995;DHT22;486;48.726;8.964;2022-07-29T12:50:57;21.50;99.90
995;DHT22;486;48.726;8.964;2022-07-29T12:53:30;21.40;99.90
995;DHT22;486;48.726;8.964;2022-07-29T12:56:00;21.30;99.90
995;DHT22;486;48.726;8.964;2022-07-29T12:58:33;21.30;99.90
995;DHT22;486;48.726;8.964;2022-07-29T13:01:05;21.20;99.90
995;DHT22;486;48.726;8.964;2022-07-29T13:03:44;21.20;99.90
995;DHT22;486;48.726;8.964;2022-07-29T13:06:34;21.10;99.90
995;DHT22;486;48.726;8.964;2022-07-29T13:09:13;20.90;99.90
995;DHT22;486;48.726;8.964;2022-07-29T13:11:44;20.80;99.90
995;DHT22;486;48.726;8.964;2022-07-29T13:14:29;20.90;99.90
995;DHT22;486;48.726;8.964;2022-07-29T13:17:02;21.00;99.90
995;DHT22;486;48.726;8.964;2022-07-29T13:19:34;21.00;99.90
995;DHT22;486;48.726;8.964;2022-07-29T13:22:06;21.00;99.90
995;DHT22;486;48.726;8.964;2022-07-29T13:24:48;21.30;99.90
995;DHT22;486;48.726;8.964;2022-07-29T13:27:21;21.70;99.90
